createdAt,value
2019-01-21T00:00:24.620Z,-6.71
2019-01-21T00:02:28.760Z,-6.74
2019-01-21T00:03:28.990Z,-6.82
2019-01-21T00:05:33.152Z,-6.74
2019-01-21T00:06:33.385Z,-6.87
2019-01-21T00:08:37.540Z,-6.98
2019-01-21T00:09:37.759Z,-6.98
2019-01-21T00:11:41.918Z,-7.08
2019-01-21T00:12:42.152Z,-7.08
2019-01-21T00:14:46.319Z,-6.97
2019-01-21T00:15:46.571Z,-6.95
2019-01-21T00:17:50.690Z,-7.00
2019-01-21T00:18:50.924Z,-7.00
2019-01-21T00:20:55.087Z,-7.11
2019-01-21T00:21:55.319Z,-7.12
2019-01-21T00:23:59.458Z,-7.12
2019-01-21T00:24:59.694Z,-7.01
2019-01-21T00:27:03.855Z,-7.12
2019-01-21T00:28:04.089Z,-7.22
2019-01-21T00:30:08.288Z,-7.33
2019-01-21T00:31:08.489Z,-7.39
2019-01-21T00:33:12.624Z,-7.51
2019-01-21T00:34:12.858Z,-7.50
2019-01-21T00:36:05.946Z,-7.43
2019-01-21T00:37:06.182Z,-7.37
2019-01-21T00:39:10.320Z,-7.22
2019-01-21T00:40:10.552Z,-7.26
2019-01-21T00:42:14.714Z,-7.16
2019-01-21T00:43:15.010Z,-6.98
2019-01-21T00:45:19.111Z,-6.97
2019-01-21T00:46:19.351Z,-6.91
2019-01-21T00:48:23.484Z,-6.97
2019-01-21T00:49:23.718Z,-6.97
2019-01-21T00:51:27.873Z,-6.94
2019-01-21T00:52:28.119Z,-6.97
2019-01-21T00:54:32.272Z,-7.00
2019-01-21T00:55:32.497Z,-6.98
2019-01-21T00:57:36.656Z,-7.15
2019-01-21T00:58:36.888Z,-7.19
2019-01-21T01:00:41.057Z,-7.22
2019-01-21T01:01:41.290Z,-7.22
2019-01-21T01:03:45.430Z,-7.40
2019-01-21T01:04:45.656Z,-7.39
2019-01-21T01:06:49.822Z,-7.41
2019-01-21T01:07:50.056Z,-7.54
2019-01-21T01:09:54.193Z,-7.60
2019-01-21T01:10:54.430Z,-7.68
2019-01-21T01:12:58.588Z,-7.72
2019-01-21T01:13:58.821Z,-7.62
2019-01-21T01:15:51.922Z,-7.71
2019-01-21T01:16:52.155Z,-7.57
2019-01-21T01:18:56.340Z,-7.52
2019-01-21T01:19:56.532Z,-7.55
2019-01-21T01:22:00.694Z,-7.22
2019-01-21T01:23:00.931Z,-7.18
2019-01-21T01:25:06.090Z,-7.22
2019-01-21T01:26:06.324Z,-7.30
2019-01-21T01:28:10.484Z,-7.21
2019-01-21T01:29:10.718Z,-7.18
2019-01-21T01:31:14.853Z,-7.22
2019-01-21T01:32:15.090Z,-7.13
2019-01-21T01:34:19.245Z,-7.21
2019-01-21T01:35:19.480Z,-7.26
2019-01-21T01:37:23.638Z,-6.87
2019-01-21T01:38:23.880Z,-6.79
2019-01-21T01:40:28.011Z,-6.65
2019-01-21T01:41:28.243Z,-6.68
2019-01-21T01:43:32.411Z,-6.86
2019-01-21T01:44:32.641Z,-6.95
2019-01-21T01:46:25.723Z,-6.86
2019-01-21T01:47:25.951Z,-7.00
2019-01-21T01:49:30.118Z,-7.12
2019-01-21T01:50:30.355Z,-7.26
2019-01-21T01:52:34.524Z,-7.22
2019-01-21T01:53:34.756Z,-7.39
2019-01-21T01:55:38.897Z,-7.41
2019-01-21T01:56:39.127Z,-7.62
2019-01-21T01:58:43.286Z,-7.37
2019-01-21T01:59:43.519Z,-7.15
2019-01-21T02:01:47.662Z,-7.13
2019-01-21T02:02:47.892Z,-7.13
2019-01-21T02:04:52.053Z,-7.30
2019-01-21T02:05:52.287Z,-7.36
2019-01-21T02:07:56.443Z,-7.41
2019-01-21T02:08:56.683Z,-7.55
2019-01-21T02:11:00.819Z,-7.71
2019-01-21T02:12:01.056Z,-7.72
2019-01-21T02:14:05.215Z,-7.89
2019-01-21T02:15:05.445Z,-8.08
2019-01-21T02:17:09.582Z,-8.13
2019-01-21T02:18:09.817Z,-8.08
2019-01-21T02:20:13.973Z,-7.93
2019-01-21T02:21:14.205Z,-7.80
2019-01-21T02:23:18.366Z,-7.71
2019-01-21T02:24:18.599Z,-7.62
2019-01-21T02:26:11.666Z,-7.72
2019-01-21T02:27:11.900Z,-7.69
2019-01-21T02:29:16.056Z,-7.80
2019-01-21T02:30:16.290Z,-7.82
2019-01-21T02:32:20.434Z,-7.87
2019-01-21T02:33:20.664Z,-7.93
2019-01-21T02:35:24.818Z,-8.11
2019-01-21T02:36:25.052Z,-8.06
2019-01-21T02:38:29.197Z,-8.27
2019-01-21T02:39:29.423Z,-8.39
2019-01-21T02:41:33.581Z,-8.45
2019-01-21T02:42:33.818Z,-8.57
2019-01-21T02:44:38.985Z,-8.86
2019-01-21T02:45:39.219Z,-8.90
2019-01-21T02:47:43.354Z,-8.70
2019-01-21T02:48:43.584Z,-8.60
2019-01-21T02:50:47.751Z,-8.42
2019-01-21T02:51:47.980Z,-8.50
2019-01-21T02:53:52.128Z,-8.57
2019-01-21T02:54:52.352Z,-8.58
2019-01-21T02:56:56.510Z,-8.60
2019-01-21T02:57:56.742Z,-8.54
2019-01-21T03:00:00.922Z,-8.50
2019-01-21T03:01:01.146Z,-8.50
2019-01-21T03:03:05.286Z,-8.31
2019-01-21T03:04:05.521Z,-8.06
2019-01-21T03:05:58.611Z,-7.78
2019-01-21T03:06:58.842Z,-7.71
2019-01-21T03:09:02.978Z,-7.54
2019-01-21T03:10:03.211Z,-7.58
2019-01-21T03:12:07.369Z,-7.54
2019-01-21T03:13:07.602Z,-7.50
2019-01-21T03:15:11.763Z,-7.66
2019-01-21T03:16:11.996Z,-7.69
2019-01-21T03:18:16.169Z,-7.62
2019-01-21T03:19:16.387Z,-7.72
2019-01-21T03:21:20.545Z,-7.68
2019-01-21T03:22:20.780Z,-7.68
2019-01-21T03:24:24.910Z,-7.48
2019-01-21T03:25:25.143Z,-7.55
2019-01-21T03:27:29.301Z,-7.46
2019-01-21T03:28:29.533Z,-7.48
2019-01-21T03:30:33.681Z,-7.41
2019-01-21T03:31:33.917Z,-7.44
2019-01-21T03:33:38.069Z,-7.40
2019-01-21T03:34:38.300Z,-7.40
2019-01-21T03:36:31.394Z,-7.34
2019-01-21T03:37:31.621Z,-7.34
2019-01-21T03:39:35.769Z,-7.22
2019-01-21T03:40:35.990Z,-7.18
2019-01-21T03:42:40.153Z,-7.04
2019-01-21T03:43:40.385Z,-7.12
2019-01-21T03:45:44.524Z,-6.98
2019-01-21T03:46:44.758Z,-6.92
2019-01-21T03:48:48.919Z,-6.94
2019-01-21T03:49:49.153Z,-6.95
2019-01-21T03:51:53.319Z,-6.92
2019-01-21T03:52:53.547Z,-6.79
2019-01-21T03:54:57.694Z,-6.77
2019-01-21T03:55:57.934Z,-6.69
2019-01-21T03:58:02.093Z,-6.62
2019-01-21T03:59:02.325Z,-6.50
2019-01-21T04:01:06.459Z,-6.47
2019-01-21T04:02:06.694Z,-6.40
2019-01-21T04:04:10.860Z,-6.31
2019-01-21T04:05:11.097Z,-6.18
2019-01-21T04:07:15.249Z,-6.19
2019-01-21T04:08:15.480Z,-6.07
2019-01-21T04:10:19.623Z,-5.98
2019-01-21T04:11:19.855Z,-5.89
2019-01-21T04:13:24.018Z,-5.84
2019-01-21T04:14:24.251Z,-5.87
2019-01-21T04:16:17.318Z,-5.76
2019-01-21T04:17:17.559Z,-5.89
2019-01-21T04:19:21.710Z,-5.92
2019-01-21T04:20:21.943Z,-5.90
2019-01-21T04:22:26.107Z,-5.93
2019-01-21T04:23:26.335Z,-5.87
2019-01-21T04:25:30.486Z,-5.83
2019-01-21T04:26:30.708Z,-5.74
2019-01-21T04:28:34.876Z,-5.83
2019-01-21T04:29:35.109Z,-5.76
2019-01-21T04:31:39.247Z,-5.79
2019-01-21T04:32:39.483Z,-5.79
2019-01-21T04:34:43.652Z,-5.87
2019-01-21T04:35:43.886Z,-5.82
2019-01-21T04:37:48.052Z,-5.84
2019-01-21T04:38:48.284Z,-5.92
2019-01-21T04:40:52.428Z,-5.87
2019-01-21T04:41:52.662Z,-5.82
2019-01-21T04:43:56.828Z,-5.84
2019-01-21T04:44:57.064Z,-5.86
2019-01-21T04:47:01.207Z,-6.00
2019-01-21T04:48:01.434Z,-6.04
2019-01-21T04:50:05.600Z,-5.93
2019-01-21T04:51:05.832Z,-5.89
2019-01-21T04:53:09.992Z,-5.86
2019-01-21T04:54:10.223Z,-5.86
2019-01-21T04:56:03.303Z,-5.87
2019-01-21T04:57:03.538Z,-5.92
2019-01-21T04:59:07.702Z,-5.79
2019-01-21T05:00:07.982Z,-5.66
2019-01-21T05:02:13.124Z,-5.69
2019-01-21T05:03:13.352Z,-5.68
2019-01-21T05:05:17.516Z,-5.61
2019-01-21T05:06:17.754Z,-5.64
2019-01-21T05:08:21.932Z,-5.53
2019-01-21T05:09:22.171Z,-5.55
2019-01-21T05:11:26.311Z,-5.50
2019-01-21T05:12:26.561Z,-5.57
2019-01-21T05:14:30.708Z,-5.59
2019-01-21T05:15:30.943Z,-5.59
2019-01-21T05:17:35.082Z,-5.50
2019-01-21T05:18:41.161Z,-5.55
2019-01-21T05:20:39.481Z,-5.44
2019-01-21T05:21:39.718Z,-5.47
2019-01-21T05:23:43.896Z,-5.54
2019-01-21T05:24:44.134Z,-5.55
2019-01-21T05:26:48.272Z,-5.55
2019-01-21T05:27:48.508Z,-5.54
2019-01-21T05:29:52.666Z,-5.54
2019-01-21T05:30:52.904Z,-5.59
2019-01-21T05:32:57.043Z,-5.55
2019-01-21T05:33:57.280Z,-5.55
2019-01-21T05:35:50.364Z,-5.53
2019-01-21T05:36:50.610Z,-5.37
2019-01-21T05:38:54.737Z,-5.47
2019-01-21T05:39:54.971Z,-5.55
2019-01-21T05:41:59.127Z,-5.59
2019-01-21T05:42:59.359Z,-5.55
2019-01-21T05:45:03.526Z,-5.48
2019-01-21T05:46:03.761Z,-5.44
2019-01-21T05:48:07.901Z,-5.48
2019-01-21T05:49:08.132Z,-5.41
2019-01-21T05:51:12.293Z,-5.50
2019-01-21T05:52:12.525Z,-5.51
2019-01-21T05:54:16.699Z,-5.41
2019-01-21T05:55:17.070Z,-5.46
2019-01-21T05:57:21.214Z,-5.37
2019-01-21T05:58:21.450Z,-5.47
2019-01-21T06:00:25.600Z,-5.41
2019-01-21T06:01:25.831Z,-5.43
2019-01-21T06:03:29.964Z,-5.39
2019-01-21T06:04:30.197Z,-5.43
2019-01-21T06:06:23.277Z,-5.35
2019-01-21T06:07:23.515Z,-5.37
2019-01-21T06:09:28.700Z,-5.32
2019-01-21T06:10:28.940Z,-5.33
2019-01-21T06:12:33.071Z,-5.43
2019-01-21T06:13:33.302Z,-5.50
2019-01-21T06:15:37.465Z,-5.43
2019-01-21T06:16:37.702Z,-5.46
2019-01-21T06:18:41.840Z,-5.37
2019-01-21T06:19:42.070Z,-5.39
2019-01-21T06:21:46.234Z,-5.46
2019-01-21T06:22:46.460Z,-5.39
2019-01-21T06:24:51.643Z,-5.32
2019-01-21T06:25:51.878Z,-5.37
2019-01-21T06:27:57.026Z,-5.36
2019-01-21T06:28:57.259Z,-5.41
2019-01-21T06:31:01.420Z,-5.35
2019-01-21T06:32:01.666Z,-5.39
2019-01-21T06:34:05.795Z,-5.47
2019-01-21T06:35:06.028Z,-5.39
2019-01-21T06:37:10.190Z,-5.37
2019-01-21T06:38:10.424Z,-5.39
2019-01-21T06:40:14.600Z,-5.32
2019-01-21T06:41:14.831Z,-5.47
2019-01-21T06:43:18.972Z,-5.35
2019-01-21T06:44:19.223Z,-5.37
2019-01-21T06:46:12.307Z,-5.35
2019-01-21T06:47:12.538Z,-5.32
2019-01-21T06:49:16.671Z,-5.33
2019-01-21T06:50:16.916Z,-5.32
2019-01-21T06:52:21.063Z,-5.32
2019-01-21T06:53:21.295Z,-5.33
2019-01-21T06:55:25.439Z,-5.37
2019-01-21T06:56:25.673Z,-5.27
2019-01-21T06:58:29.836Z,-5.30
2019-01-21T06:59:30.070Z,-5.11
2019-01-21T07:01:34.248Z,-5.22
2019-01-21T07:02:35.200Z,-5.06
2019-01-21T07:04:38.642Z,-4.99
2019-01-21T07:05:38.881Z,-4.97
2019-01-21T07:07:43.015Z,-4.90
2019-01-21T07:08:43.250Z,-4.99
2019-01-21T07:10:47.414Z,-4.92
2019-01-21T07:11:47.651Z,-4.96
2019-01-21T07:13:51.789Z,-4.93
2019-01-21T07:14:52.026Z,-4.99
2019-01-21T07:16:56.186Z,-4.96
2019-01-21T07:17:56.420Z,-4.93
2019-01-21T07:20:00.594Z,-5.00
2019-01-21T07:21:00.815Z,-4.96
2019-01-21T07:23:04.957Z,-4.95
2019-01-21T07:24:05.187Z,-5.00
2019-01-21T07:25:58.274Z,-4.99
2019-01-21T07:26:58.508Z,-5.03
2019-01-21T07:29:02.649Z,-5.13
2019-01-21T07:30:04.303Z,-5.13
2019-01-21T07:32:07.047Z,-5.06
2019-01-21T07:33:07.280Z,-5.04
2019-01-21T07:35:11.446Z,-4.95
2019-01-21T07:36:11.680Z,-5.07
2019-01-21T07:38:15.830Z,-5.00
2019-01-21T07:39:16.069Z,-4.92
2019-01-21T07:41:20.219Z,-5.00
2019-01-21T07:42:20.447Z,-4.87
2019-01-21T07:44:24.589Z,-4.93
2019-01-21T07:45:24.819Z,-4.90
2019-01-21T07:47:28.980Z,-4.90
2019-01-21T07:48:29.211Z,-4.85
2019-01-21T07:50:33.384Z,-4.86
2019-01-21T07:51:33.615Z,-4.81
2019-01-21T07:53:37.755Z,-4.87
2019-01-21T07:54:37.986Z,-4.90
2019-01-21T07:56:31.087Z,-4.81
2019-01-21T07:57:31.307Z,-4.93
2019-01-21T07:59:35.441Z,-4.81
2019-01-21T08:00:35.676Z,-4.75
2019-01-21T08:02:39.835Z,-4.77
2019-01-21T08:03:40.067Z,-4.75
2019-01-21T08:05:45.238Z,-4.63
2019-01-21T08:06:45.488Z,-4.57
2019-01-21T08:08:49.608Z,-4.60
2019-01-21T08:09:49.839Z,-4.56
2019-01-21T08:11:55.013Z,-4.54
2019-01-21T08:12:55.244Z,-4.49
2019-01-21T08:14:59.381Z,-4.47
2019-01-21T08:15:59.612Z,-4.40
2019-01-21T08:18:03.770Z,-4.30
2019-01-21T08:19:04.002Z,-4.21
2019-01-21T08:21:08.157Z,-4.14
2019-01-21T08:22:08.387Z,-4.11
2019-01-21T08:24:12.530Z,-4.24
2019-01-21T08:25:12.756Z,-4.39
2019-01-21T08:27:16.919Z,-4.29
2019-01-21T08:28:17.286Z,-4.33
2019-01-21T08:30:21.323Z,-4.20
2019-01-21T08:31:21.565Z,-4.10
2019-01-21T08:33:25.730Z,-4.04
2019-01-21T08:34:25.965Z,-4.00
2019-01-21T08:36:19.053Z,-4.01
2019-01-21T08:37:19.281Z,-3.93
2019-01-21T08:39:23.419Z,-3.93
2019-01-21T08:40:23.651Z,-3.83
2019-01-21T08:42:27.810Z,-3.76
2019-01-21T08:43:28.036Z,-3.72
2019-01-21T08:45:32.176Z,-3.62
2019-01-21T08:46:32.409Z,-3.64
2019-01-21T08:48:36.583Z,-3.60
2019-01-21T08:49:36.802Z,-3.64
2019-01-21T08:51:40.961Z,-3.53
2019-01-21T08:52:41.192Z,-3.41
2019-01-21T08:54:45.351Z,-3.36
2019-01-21T08:55:45.567Z,-3.36
2019-01-21T08:57:49.725Z,-3.25
2019-01-21T08:58:49.954Z,-3.35
2019-01-21T09:00:54.092Z,-3.18
2019-01-21T09:01:54.323Z,-3.15
2019-01-21T09:03:58.485Z,-3.07
2019-01-21T09:04:58.716Z,-3.03
2019-01-21T09:07:02.878Z,-3.02
2019-01-21T09:08:03.108Z,-3.00
2019-01-21T09:10:07.251Z,-2.85
2019-01-21T09:11:07.485Z,-2.77
2019-01-21T09:13:11.645Z,-2.70
2019-01-21T09:14:11.874Z,-2.68
2019-01-21T09:16:04.939Z,-2.50
2019-01-21T09:17:05.170Z,-2.39
2019-01-21T09:19:09.337Z,-2.26
2019-01-21T09:20:10.886Z,-2.15
2019-01-21T09:22:13.735Z,-2.03
2019-01-21T09:23:13.971Z,-1.95
2019-01-21T09:25:18.111Z,-1.97
2019-01-21T09:26:18.343Z,-1.95
2019-01-21T09:28:22.505Z,-1.67
2019-01-21T09:29:22.738Z,-1.61
2019-01-21T09:31:26.878Z,-1.56
2019-01-21T09:32:27.110Z,-1.43
2019-01-21T09:34:31.273Z,-1.35
2019-01-21T09:35:31.504Z,-1.13
2019-01-21T09:37:35.687Z,-1.10
2019-01-21T09:38:35.926Z,-1.04
2019-01-21T09:40:40.063Z,-1.04
2019-01-21T09:41:40.296Z,-0.95
2019-01-21T09:43:44.460Z,-0.85
2019-01-21T09:44:44.697Z,-0.92
2019-01-21T09:46:48.838Z,-1.07
2019-01-21T09:47:49.072Z,-1.01
2019-01-21T09:49:53.235Z,-0.95
2019-01-21T09:50:53.467Z,-0.83
2019-01-21T09:52:57.649Z,-0.82
2019-01-21T09:53:57.887Z,-0.65
2019-01-21T09:55:50.953Z,-0.05
2019-01-21T09:56:51.187Z,-0.10
2019-01-21T09:58:55.355Z,0.07
2019-01-21T09:59:55.590Z,0.11
2019-01-21T10:01:59.735Z,0.20
2019-01-21T10:02:59.972Z,0.21
2019-01-21T10:05:04.141Z,0.07
2019-01-21T10:06:04.374Z,-0.05
2019-01-21T10:08:08.520Z,-0.21
2019-01-21T10:09:08.753Z,-0.43
2019-01-21T10:11:12.918Z,1.66
2019-01-21T10:12:13.154Z,2.25
2019-01-21T10:14:17.317Z,3.00
2019-01-21T10:15:17.553Z,3.02
2019-01-21T10:17:21.712Z,2.81
2019-01-21T10:18:21.945Z,3.36
2019-01-21T10:20:26.113Z,3.03
2019-01-21T10:21:26.346Z,2.36
2019-01-21T10:23:30.516Z,2.63
2019-01-21T10:24:30.752Z,2.89
2019-01-21T10:26:23.829Z,3.90
2019-01-21T10:27:24.063Z,3.91
2019-01-21T10:29:28.240Z,3.65
2019-01-21T10:30:28.467Z,5.00
2019-01-21T10:32:32.626Z,3.84
2019-01-21T10:33:34.117Z,4.50
2019-01-21T10:35:37.038Z,5.85
2019-01-21T10:36:37.281Z,6.84
2019-01-21T10:38:41.438Z,8.34
2019-01-21T10:39:41.676Z,8.61
2019-01-21T10:41:45.857Z,3.83
2019-01-21T10:42:46.098Z,3.75
2019-01-21T10:44:50.274Z,5.71
2019-01-21T10:45:50.516Z,6.34
2019-01-21T10:47:54.694Z,8.63
2019-01-21T10:48:54.928Z,9.15
2019-01-21T10:50:59.107Z,9.48
2019-01-21T10:51:59.347Z,8.15
2019-01-21T10:54:03.511Z,5.03
2019-01-21T10:55:03.753Z,6.03
2019-01-21T10:57:08.955Z,7.77
2019-01-21T10:58:09.198Z,8.25
2019-01-21T11:00:13.386Z,8.15
2019-01-21T11:01:13.630Z,7.77
2019-01-21T11:03:17.800Z,6.87
2019-01-21T11:04:18.047Z,6.22
2019-01-21T11:06:11.170Z,6.84
2019-01-21T11:07:11.417Z,7.46
2019-01-21T11:09:15.586Z,9.10
2019-01-21T11:10:15.832Z,9.64
2019-01-21T11:12:20.027Z,11.11
2019-01-21T11:13:20.275Z,10.12
2019-01-21T11:15:25.477Z,7.69
2019-01-21T11:16:25.721Z,9.18
2019-01-21T11:18:29.893Z,8.04
2019-01-21T11:19:30.141Z,9.43
2019-01-21T11:21:34.340Z,10.18
2019-01-21T11:22:34.585Z,9.50
2019-01-21T11:24:38.763Z,11.33
2019-01-21T11:25:39.011Z,11.55
2019-01-21T11:27:43.204Z,11.65
2019-01-21T11:28:43.450Z,11.47
2019-01-21T11:30:48.658Z,11.76
2019-01-21T11:31:48.903Z,11.76
2019-01-21T11:33:53.076Z,11.47
2019-01-21T11:34:53.323Z,9.99
2019-01-21T11:36:57.520Z,8.30
2019-01-21T11:37:57.770Z,8.00
2019-01-21T11:40:01.944Z,6.55
2019-01-21T11:41:02.196Z,8.02
2019-01-21T11:43:06.382Z,9.87
2019-01-21T11:44:06.629Z,10.36
2019-01-21T11:45:59.755Z,10.86
2019-01-21T11:47:00.001Z,10.97
2019-01-21T11:49:04.174Z,11.75
2019-01-21T11:50:10.360Z,11.11
2019-01-21T11:52:08.618Z,8.59
2019-01-21T11:53:08.867Z,7.77
2019-01-21T11:55:13.050Z,7.95
2019-01-21T11:56:13.299Z,6.76
2019-01-21T11:58:17.491Z,6.43
2019-01-21T11:59:17.738Z,7.03
2019-01-21T12:01:21.934Z,9.47
2019-01-21T12:02:22.184Z,9.61
2019-01-21T12:04:26.366Z,10.07
2019-01-21T12:05:26.615Z,10.48
2019-01-21T12:07:31.828Z,11.51
2019-01-21T12:08:32.071Z,12.16
2019-01-21T12:10:36.243Z,10.48
2019-01-21T12:11:36.493Z,7.93
2019-01-21T12:13:40.687Z,9.56
2019-01-21T12:14:40.934Z,8.30
2019-01-21T12:16:34.037Z,7.97
2019-01-21T12:17:34.287Z,7.32
2019-01-21T12:19:38.474Z,9.75
2019-01-21T12:20:38.736Z,10.52
2019-01-21T12:22:42.933Z,7.37
2019-01-21T12:23:43.183Z,7.23
2019-01-21T12:25:47.449Z,7.07
2019-01-21T12:26:47.636Z,7.82
2019-01-21T12:28:51.908Z,10.05
2019-01-21T12:29:52.105Z,8.52
2019-01-21T12:31:57.292Z,9.96
2019-01-21T12:32:57.540Z,10.89
2019-01-21T12:35:01.728Z,11.88
2019-01-21T12:36:02.055Z,11.78
2019-01-21T12:38:06.453Z,11.69
2019-01-21T12:39:06.700Z,11.61
2019-01-21T12:41:10.947Z,11.58
2019-01-21T12:42:11.222Z,11.55
2019-01-21T12:44:15.500Z,11.29
2019-01-21T12:45:15.754Z,11.51
2019-01-21T12:47:19.932Z,12.35
2019-01-21T12:48:20.178Z,12.82
2019-01-21T12:50:24.382Z,12.93
2019-01-21T12:51:24.672Z,13.33
2019-01-21T12:53:28.869Z,11.98
2019-01-21T12:54:29.127Z,12.52
2019-01-21T12:56:23.250Z,12.59
2019-01-21T12:57:23.500Z,12.64
2019-01-21T12:59:27.775Z,12.17
2019-01-21T13:00:28.075Z,11.79
2019-01-21T13:02:32.284Z,11.27
2019-01-21T13:03:32.521Z,11.24
2019-01-21T13:05:36.766Z,11.62
2019-01-21T13:06:37.030Z,10.68
2019-01-21T13:08:41.227Z,10.64
2019-01-21T13:09:41.507Z,11.14
2019-01-21T13:11:45.674Z,10.78
2019-01-21T13:12:45.974Z,9.40
2019-01-21T13:14:50.167Z,7.53
2019-01-21T13:15:50.457Z,8.28
2019-01-21T13:17:54.624Z,10.48
2019-01-21T13:18:54.873Z,10.85
2019-01-21T13:20:59.075Z,11.02
2019-01-21T13:21:59.322Z,10.08
2019-01-21T13:24:03.509Z,10.56
2019-01-21T13:25:03.757Z,11.02
2019-01-21T13:27:07.931Z,9.87
2019-01-21T13:28:08.177Z,9.54
2019-01-21T13:30:12.366Z,8.81
2019-01-21T13:31:12.613Z,8.70
2019-01-21T13:33:16.783Z,8.87
2019-01-21T13:34:17.030Z,9.24
2019-01-21T13:36:10.147Z,8.91
2019-01-21T13:37:10.397Z,8.99
2019-01-21T13:39:14.611Z,10.02
2019-01-21T13:40:14.858Z,10.07
2019-01-21T13:42:19.022Z,9.69
2019-01-21T13:43:19.266Z,8.87
2019-01-21T13:45:23.451Z,9.17
2019-01-21T13:46:23.700Z,8.73
2019-01-21T13:48:27.866Z,7.72
2019-01-21T13:49:28.110Z,8.29
2019-01-21T13:51:32.388Z,8.92
2019-01-21T13:52:32.655Z,8.55
2019-01-21T13:54:36.894Z,8.08
2019-01-21T13:55:37.170Z,8.37
2019-01-21T13:57:41.336Z,8.50
2019-01-21T13:58:41.577Z,8.79
2019-01-21T14:00:45.781Z,9.23
2019-01-21T14:01:46.028Z,9.68
2019-01-21T14:03:50.198Z,9.69
2019-01-21T14:04:50.441Z,9.58
2019-01-21T14:06:54.782Z,8.63
2019-01-21T14:07:55.031Z,8.50
2019-01-21T14:10:00.246Z,7.97
2019-01-21T14:11:00.478Z,8.47
2019-01-21T14:13:04.665Z,8.95
2019-01-21T14:14:04.908Z,8.83
2019-01-21T14:15:58.090Z,8.45
2019-01-21T14:16:58.371Z,9.05
2019-01-21T14:19:02.572Z,9.32
2019-01-21T14:20:02.810Z,8.58
2019-01-21T14:22:07.074Z,7.87
2019-01-21T14:23:07.316Z,7.85
2019-01-21T14:25:11.645Z,7.31
2019-01-21T14:26:13.068Z,7.86
2019-01-21T14:28:16.095Z,8.04
2019-01-21T14:29:16.546Z,7.85
2019-01-21T14:31:20.579Z,7.83
2019-01-21T14:32:20.947Z,7.98
2019-01-21T14:34:25.122Z,8.30
2019-01-21T14:35:25.372Z,7.98
2019-01-21T14:37:29.560Z,7.71
2019-01-21T14:38:29.806Z,7.30
2019-01-21T14:40:33.964Z,7.49
2019-01-21T14:41:34.202Z,7.23
2019-01-21T14:43:38.413Z,6.99
2019-01-21T14:44:38.632Z,7.24
2019-01-21T14:46:31.719Z,6.89
2019-01-21T14:47:31.969Z,6.67
2019-01-21T14:49:36.149Z,6.00
2019-01-21T14:50:36.396Z,6.44
2019-01-21T14:52:40.612Z,6.21
2019-01-21T14:53:40.832Z,5.68
2019-01-21T14:55:45.995Z,5.57
2019-01-21T14:56:46.250Z,5.63
2019-01-21T14:58:50.421Z,6.01
2019-01-21T14:59:51.792Z,6.00
2019-01-21T15:01:54.810Z,5.96
2019-01-21T15:02:55.072Z,5.75
2019-01-21T15:04:59.242Z,5.49
2019-01-21T15:05:59.477Z,5.58
2019-01-21T15:08:03.656Z,5.27
2019-01-21T15:09:03.947Z,5.07
2019-01-21T15:11:08.048Z,5.18
2019-01-21T15:12:08.303Z,5.07
2019-01-21T15:14:12.466Z,4.77
2019-01-21T15:15:12.717Z,4.75
2019-01-21T15:17:16.921Z,4.58
2019-01-21T15:18:17.157Z,4.37
2019-01-21T15:20:21.375Z,4.04
2019-01-21T15:21:21.606Z,3.78
2019-01-21T15:23:25.773Z,3.40
2019-01-21T15:24:25.992Z,3.33
2019-01-21T15:26:19.031Z,3.42
2019-01-21T15:27:19.333Z,3.45
2019-01-21T15:29:23.513Z,3.13
2019-01-21T15:30:23.695Z,2.92
2019-01-21T15:32:27.847Z,2.43
2019-01-21T15:33:28.076Z,2.42
2019-01-21T15:35:33.288Z,1.99
2019-01-21T15:36:33.504Z,1.72
2019-01-21T15:38:37.858Z,1.60
2019-01-21T15:39:38.023Z,1.52
2019-01-21T15:41:42.055Z,1.27
2019-01-21T15:42:42.324Z,0.98
2019-01-21T15:44:46.498Z,0.61
2019-01-21T15:45:50.755Z,0.41
2019-01-21T15:47:50.867Z,0.15
2019-01-21T15:48:51.090Z,-0.15
2019-01-21T15:50:55.255Z,-0.73
2019-01-21T15:51:55.485Z,-0.94
2019-01-21T15:53:59.669Z,-1.05
2019-01-21T15:54:59.896Z,-1.16
2019-01-21T15:57:05.061Z,-1.30
2019-01-21T15:58:05.297Z,-1.30
2019-01-21T16:00:09.474Z,-1.38
2019-01-21T16:01:09.710Z,-1.48
2019-01-21T16:03:13.869Z,-1.74
2019-01-21T16:04:14.096Z,-1.84
2019-01-21T16:06:07.193Z,-1.98
2019-01-21T16:07:07.429Z,-2.15
2019-01-21T16:09:11.593Z,-2.27
2019-01-21T16:10:11.831Z,-2.32
2019-01-21T16:12:15.984Z,-2.45
2019-01-21T16:13:16.220Z,-2.37
2019-01-21T16:15:20.396Z,-2.50
2019-01-21T16:16:20.631Z,-2.60
2019-01-21T16:18:24.778Z,-2.73
2019-01-21T16:19:25.013Z,-2.78
2019-01-21T16:21:30.196Z,-2.99
2019-01-21T16:22:30.433Z,-3.07
2019-01-21T16:24:34.630Z,-3.12
2019-01-21T16:25:34.843Z,-3.07
2019-01-21T16:27:38.992Z,-3.15
2019-01-21T16:28:39.229Z,-3.15
2019-01-21T16:30:43.430Z,-3.38
2019-01-21T16:31:43.622Z,-3.24
2019-01-21T16:33:47.768Z,-3.52
2019-01-21T16:34:47.998Z,-3.52
2019-01-21T16:36:52.198Z,-3.72
2019-01-21T16:37:52.404Z,-3.82
2019-01-21T16:39:56.572Z,-3.79
2019-01-21T16:40:56.810Z,-3.90
2019-01-21T16:43:00.950Z,-3.85
2019-01-21T16:44:01.195Z,-3.91
2019-01-21T16:45:54.288Z,-4.11
2019-01-21T16:46:54.523Z,-4.11
2019-01-21T16:48:58.674Z,-3.76
2019-01-21T16:49:58.913Z,-3.69
2019-01-21T16:52:03.081Z,-3.60
2019-01-21T16:53:03.318Z,-3.60
2019-01-21T16:55:07.486Z,-3.64
2019-01-21T16:56:07.720Z,-3.71
2019-01-21T16:58:11.865Z,-3.75
2019-01-21T16:59:12.099Z,-3.60
2019-01-21T17:01:16.263Z,-3.39
2019-01-21T17:02:16.498Z,-3.42
2019-01-21T17:04:20.640Z,-3.23
2019-01-21T17:05:20.874Z,-3.31
2019-01-21T17:07:25.030Z,-3.17
2019-01-21T17:08:25.276Z,-3.20
2019-01-21T17:10:29.439Z,-3.62
2019-01-21T17:11:29.669Z,-3.60
2019-01-21T17:13:33.817Z,-3.72
2019-01-21T17:14:34.051Z,-3.83
2019-01-21T17:16:27.142Z,-3.75
2019-01-21T17:17:27.381Z,-3.76
2019-01-21T17:19:31.528Z,-3.81
2019-01-21T17:20:31.756Z,-3.72
2019-01-21T17:22:35.945Z,-3.71
2019-01-21T17:23:36.154Z,-3.66
2019-01-21T17:25:40.333Z,-3.66
2019-01-21T17:26:40.562Z,-3.72
2019-01-21T17:28:44.715Z,-3.69
2019-01-21T17:29:44.937Z,-3.57
2019-01-21T17:31:49.111Z,-3.79
2019-01-21T17:32:49.352Z,-3.85
2019-01-21T17:34:53.487Z,-4.12
2019-01-21T17:35:53.719Z,-4.11
2019-01-21T17:37:57.890Z,-4.18
2019-01-21T17:38:58.125Z,-4.36
2019-01-21T17:41:02.265Z,-4.32
2019-01-21T17:42:02.508Z,-4.36
2019-01-21T17:44:06.657Z,-4.30
2019-01-21T17:45:06.890Z,-4.20
2019-01-21T17:47:11.060Z,-4.12
2019-01-21T17:48:11.277Z,-4.17
2019-01-21T17:50:15.420Z,-4.11
2019-01-21T17:51:15.654Z,-4.14
2019-01-21T17:53:19.825Z,-4.14
2019-01-21T17:54:20.059Z,-4.20
2019-01-21T17:56:13.128Z,-4.17
2019-01-21T17:57:13.361Z,-4.15
2019-01-21T17:59:17.523Z,-4.11
2019-01-21T18:00:17.762Z,-4.11
2019-01-21T18:02:21.922Z,-3.85
2019-01-21T18:03:22.156Z,-3.88
2019-01-21T18:05:26.300Z,-3.75
2019-01-21T18:06:26.529Z,-3.71
2019-01-21T18:08:38.211Z,-3.81
2019-01-21T18:09:30.878Z,-3.85
2019-01-21T18:11:37.767Z,-3.94
2019-01-21T18:12:35.291Z,-4.03
2019-01-21T18:14:39.513Z,-4.03
2019-01-21T18:15:41.025Z,-4.06
2019-01-21T18:17:43.939Z,-4.04
2019-01-21T18:18:44.261Z,-4.11
2019-01-21T18:20:48.419Z,-4.18
2019-01-21T18:21:48.652Z,-4.35
2019-01-21T18:23:52.888Z,-4.42
2019-01-21T18:24:53.148Z,-4.46
2019-01-21T18:26:57.316Z,-4.42
2019-01-21T18:27:57.655Z,-4.56
2019-01-21T18:30:02.138Z,-4.67
2019-01-21T18:31:02.106Z,-4.72
2019-01-21T18:33:06.298Z,-4.83
2019-01-21T18:34:06.590Z,-4.86
2019-01-21T18:35:59.657Z,-5.19
2019-01-21T18:36:59.932Z,-5.26
2019-01-21T18:39:04.094Z,-5.26
2019-01-21T18:40:04.362Z,-5.32
2019-01-21T18:42:08.530Z,-5.18
2019-01-21T18:43:08.761Z,-5.19
2019-01-21T18:45:12.921Z,-5.23
2019-01-21T18:46:13.161Z,-5.25
2019-01-21T18:48:17.376Z,-5.41
2019-01-21T18:49:22.800Z,-5.54
2019-01-21T18:51:21.793Z,-5.71
2019-01-21T18:52:22.054Z,-5.54
2019-01-21T18:54:26.317Z,-5.41
2019-01-21T18:55:26.541Z,-5.39
2019-01-21T18:57:30.759Z,-5.25
2019-01-21T18:58:30.972Z,-5.33
2019-01-21T19:00:36.160Z,-5.55
2019-01-21T19:01:36.379Z,-5.57
2019-01-21T19:03:40.553Z,-5.68
2019-01-21T19:04:40.769Z,-5.75
2019-01-21T19:06:33.858Z,-5.55
2019-01-21T19:07:34.086Z,-5.35
2019-01-21T19:09:38.247Z,-5.41
2019-01-21T19:10:38.478Z,-5.30
2019-01-21T19:12:42.621Z,-5.33
2019-01-21T19:13:42.869Z,-5.36
2019-01-21T19:15:48.039Z,-5.22
2019-01-21T19:16:48.283Z,-5.06
2019-01-21T19:18:52.448Z,-4.83
2019-01-21T19:19:52.685Z,-4.92
2019-01-21T19:21:56.818Z,-4.99
2019-01-21T19:22:57.055Z,-5.03
2019-01-21T19:25:01.212Z,-4.79
2019-01-21T19:26:01.450Z,-4.86
2019-01-21T19:28:05.572Z,-4.81
2019-01-21T19:29:05.808Z,-4.87
2019-01-21T19:31:09.973Z,-4.85
2019-01-21T19:32:10.197Z,-4.87
2019-01-21T19:34:14.357Z,-4.71
2019-01-21T19:35:14.590Z,-4.75
2019-01-21T19:37:18.733Z,-4.87
2019-01-21T19:38:18.968Z,-4.85
2019-01-21T19:40:23.125Z,-4.95
2019-01-21T19:41:23.364Z,-4.96
2019-01-21T19:43:27.501Z,-5.35
2019-01-21T19:44:27.735Z,-5.35
2019-01-21T19:46:20.827Z,-5.55
2019-01-21T19:47:21.056Z,-5.54
2019-01-21T19:49:25.210Z,-5.71
2019-01-21T19:50:25.446Z,-5.74